Hebron, Canada
Current Conditions -  °F | °C
As of 4:00 PM on Monday 22 Dec 2014 (Local Time) from CYQI Reporting Station
Few Clouds Few Clouds  
Wind Chill: 34°   Ceiling: Unl
Heat Index: 39°   Visibility: 14mi
Dew Point: 27°   Wind: 7mph
Humidity: 61%   Direction: 80°E
Pressure: 30.4"   Gusts: NA
Location:  43.88°N, 66.08°W
Report Text: CYQI 222000Z 08006KT 14SM FEW035 FEW250 04/M03 A3040 RMK SC1CI1 CI TR SLP297
Loading
Personal Weather Stations






























Interactive Weather Map New forecast layout! Learn more

10-Day Weather Forecast

Advertisements
Track Severe Weather on mobile